Time;durP1;ratioP1;P1;durP2;ratioP2;P2;SDS_P1;SDS_P2;PMS_P1;PMS_P2;Temp;Humidity;BMP_temperature;BMP_pressure;BME280_temperature;BME280_humidity;BME280_pressure;Samples;Min_cycle;Max_cycle;Signal;HPM_P1;HPM_P2
2023/05/19 00:01:51;;;;;;;1.35;1.00;;;;;;;24.00;35.36;102578.41;5037558;27;96874;-72
2023/05/19 00:04:18;;;;;;;1.00;0.90;;;;;;;23.99;35.67;102579.44;5050756;27;97761;-73
2023/05/19 00:06:49;;;;;;;1.35;1.10;;;;;;;24.00;35.69;102578.41;5050670;27;97231;-72
2023/05/19 00:09:16;;;;;;;1.23;0.90;;;;;;;23.99;35.71;102570.31;5049531;27;97258;-72
2023/05/19 00:11:43;;;;;;;1.35;0.95;;;;;;;23.99;35.79;102575.81;5051240;27;96773;-73
2023/05/19 00:14:10;;;;;;;1.40;1.10;;;;;;;23.98;35.48;102577.69;5050376;27;97060;-72
2023/05/19 00:16:37;;;;;;;1.08;0.98;;;;;;;23.99;35.89;102579.44;5050321;27;97244;-73
2023/05/19 00:19:08;;;;;;;1.25;1.15;;;;;;;23.99;35.76;102576.69;5051032;27;96965;-73
2023/05/19 00:21:39;;;;;;;1.13;1.05;;;;;;;23.98;35.54;102577.69;5051257;27;97553;-72
2023/05/19 00:24:06;;;;;;;1.70;1.00;;;;;;;23.98;35.71;102574.09;5032344;27;100452;-72
2023/05/19 00:26:32;;;;;;;1.70;1.13;;;;;;;23.98;35.75;102568.59;5049752;27;96916;-72
2023/05/19 00:29:03;;;;;;;1.33;1.00;;;;;;;23.97;35.57;102570.47;5050858;27;96668;-73
2023/05/19 00:31:32;;;;;;;1.88;1.13;;;;;;;23.97;35.54;102569.63;5051178;27;96787;-73
2023/05/19 00:33:59;;;;;;;2.25;1.48;;;;;;;23.97;35.68;102566.88;5064954;27;97283;-73
2023/05/19 00:36:26;;;;;;;1.58;1.00;;;;;;;23.97;35.66;102565.00;5048773;27;98288;-73
2023/05/19 00:38:54;;;;;;;1.13;0.93;;;;;;;23.96;35.96;102563.25;5049384;27;97003;-73
2023/05/19 00:41:21;;;;;;;1.20;1.05;;;;;;;23.96;35.66;102565.16;5051462;27;97065;-72
2023/05/19 00:43:49;;;;;;;1.75;1.10;;;;;;;23.95;35.65;102561.53;5032107;27;100616;-72
2023/05/19 00:46:17;;;;;;;1.52;1.02;;;;;;;23.96;35.55;102556.91;5042012;27;99610;-72
2023/05/19 00:48:44;;;;;;;1.35;1.00;;;;;;;23.95;35.11;102550.56;5050459;27;96844;-72
2023/05/19 00:51:15;;;;;;;0.90;0.90;;;;;;;23.95;35.65;102549.69;5033021;27;97555;-73
2023/05/19 00:53:47;;;;;;;1.38;1.02;;;;;;;23.94;35.78;102540.59;5050020;27;97042;-72
2023/05/19 00:56:15;;;;;;;1.30;0.90;;;;;;;23.94;35.96;102540.59;5049309;27;99431;-73
2023/05/19 00:58:42;;;;;;;1.65;1.40;;;;;;;23.94;35.75;102547.97;5048673;27;97050;-72
2023/05/19 01:01:10;;;;;;;2.15;1.42;;;;;;;23.94;35.58;102547.97;5048656;27;96898;-73
2023/05/19 01:03:39;;;;;;;1.33;1.05;;;;;;;23.94;35.60;102542.47;5049414;27;98853;-73
2023/05/19 01:06:06;;;;;;;1.38;1.10;;;;;;;23.94;35.77;102542.47;5050505;27;96690;-72
2023/05/19 01:08:35;;;;;;;1.15;1.00;;;;;;;23.93;35.63;102547.13;5032088;27;96645;-73
2023/05/19 01:11:06;;;;;;;1.35;1.17;;;;;;;23.93;35.91;102547.13;5050328;27;96779;-73
2023/05/19 01:13:34;;;;;;;1.52;1.40;;;;;;;23.92;35.65;102547.25;5048518;27;96869;-73
2023/05/19 01:16:09;;;;;;;1.42;1.13;;;;;;;23.93;35.65;102551.75;5048644;27;97444;-73
2023/05/19 01:18:43;;;;;;;2.20;1.10;;;;;;;23.92;35.42;102553.63;5032011;27;96769;-72
2023/05/19 01:21:43;;;;;;;1.10;1.00;;;;;;;23.92;35.59;102559.09;5035772;27;96942;-73
2023/05/19 01:24:33;;;;;;;0.90;0.88;;;;;;;23.92;35.77;102550.00;5040997;27;97732;-72
2023/05/19 01:27:13;;;;;;;1.00;0.90;;;;;;;23.90;35.69;102550.16;5049749;27;97048;-72
2023/05/19 01:30:17;;;;;;;1.60;1.10;;;;;;;23.90;35.61;102546.56;5050383;27;96713;-73
2023/05/19 01:32:46;;;;;;;1.00;0.90;;;;;;;23.87;35.69;102546.88;5048413;27;97408;-73
2023/05/19 01:35:15;;;;;;;1.20;1.10;;;;;;;23.87;35.64;102553.22;5049080;27;97838;-72
2023/05/19 01:37:44;;;;;;;2.00;1.30;;;;;;;23.87;35.75;102545.00;5049340;27;97144;-73
2023/05/19 01:40:11;;;;;;;1.25;1.15;;;;;;;23.87;35.58;102550.47;5050218;27;97395;-73
2023/05/19 01:42:39;;;;;;;1.30;1.20;;;;;;;23.87;35.56;102547.72;5031978;27;97037;-73
2023/05/19 01:45:09;;;;;;;1.38;1.20;;;;;;;23.87;35.76;102546.88;5049111;27;97491;-73
2023/05/19 01:47:42;;;;;;;2.58;1.20;;;;;;;23.89;35.65;102551.19;5048089;27;96993;-73
2023/05/19 01:50:09;;;;;;;1.38;1.08;;;;;;;23.87;35.61;102555.97;5031452;27;97419;-72
2023/05/19 01:52:36;;;;;;;1.50;1.40;;;;;;;23.88;35.71;102549.47;5048440;27;97439;-72
2023/05/19 01:55:04;;;;;;;2.08;1.27;;;;;;;23.87;35.60;102549.63;5047184;27;99295;-72
2023/05/19 01:58:00;;;;;;;1.98;1.20;;;;;;;23.88;35.63;102546.72;5049407;27;97137;-73
2023/05/19 02:00:32;;;;;;;1.50;1.02;;;;;;;23.87;35.56;102546.88;5048482;27;96794;-73
2023/05/19 02:03:20;;;;;;;1.33;1.00;;;;;;;23.86;35.57;102543.25;5050651;27;97795;-72
2023/05/19 02:05:59;;;;;;;1.33;1.05;;;;;;;23.85;35.44;102547.03;5047589;27;100598;-73
2023/05/19 02:08:32;;;;;;;1.85;1.20;;;;;;;23.85;35.55;102544.28;5052858;27;99209;-72
2023/05/19 02:11:07;;;;;;;1.15;1.05;;;;;;;23.85;35.55;102540.69;5051923;27;97341;-73
2023/05/19 02:13:38;;;;;;;1.55;1.10;;;;;;;23.84;35.64;102542.56;5051415;27;97256;-73
2023/05/19 02:16:06;;;;;;;1.27;1.00;;;;;;;23.85;35.44;102543.41;5050470;27;99157;-72
2023/05/19 02:18:34;;;;;;;1.40;1.17;;;;;;;23.85;35.56;102535.19;5051073;27;98408;-72
2023/05/19 02:21:01;;;;;;;1.80;1.00;;;;;;;23.85;35.64;102524.22;5051522;27;96902;-72
2023/05/19 02:23:28;;;;;;;1.80;1.10;;;;;;;23.85;35.58;102535.19;5051190;27;96993;-73
2023/05/19 02:25:56;;;;;;;1.65;1.38;;;;;;;23.85;35.52;102526.97;5051386;27;97418;-73
2023/05/19 02:28:26;;;;;;;1.83;1.40;;;;;;;23.84;35.34;102526.09;5050998;27;100443;-72
2023/05/19 02:30:53;;;;;;;1.30;1.20;;;;;;;23.84;35.56;102534.31;5051324;27;96800;-72
2023/05/19 02:33:23;;;;;;;1.77;1.00;;;;;;;23.85;34.95;102529.69;5052798;27;96691;-73
2023/05/19 02:35:50;;;;;;;2.30;1.40;;;;;;;23.83;35.50;102527.09;5050920;27;96931;-73
2023/05/19 02:38:16;;;;;;;1.52;1.33;;;;;;;23.82;35.41;102530.88;5052478;27;96746;-73
2023/05/19 02:40:43;;;;;;;1.30;1.17;;;;;;;23.83;35.67;102524.38;5051013;27;96615;-73
2023/05/19 02:43:10;;;;;;;2.20;1.13;;;;;;;23.83;35.66;102518.00;5052526;27;96843;-72
2023/05/19 02:45:36;;;;;;;1.35;1.05;;;;;;;23.83;35.72;102518.88;5031114;27;99697;-73
2023/05/19 02:48:03;;;;;;;1.25;1.15;;;;;;;23.83;35.76;102515.28;5052135;27;97128;-73
2023/05/19 02:50:30;;;;;;;1.63;1.20;;;;;;;23.82;35.33;102519.91;5052469;27;96932;-72
2023/05/19 02:52:57;;;;;;;1.40;1.25;;;;;;;23.82;35.41;102517.16;5052504;27;97293;-73
2023/05/19 02:55:23;;;;;;;1.35;1.10;;;;;;;23.82;35.26;102513.53;5052742;27;96689;-73
2023/05/19 02:57:50;;;;;;;1.83;1.25;;;;;;;23.82;35.59;102519.03;5052430;27;97901;-73
2023/05/19 03:00:17;;;;;;;1.50;1.10;;;;;;;23.82;35.52;102514.41;5050581;27;96781;-72
2023/05/19 03:02:44;;;;;;;1.40;1.30;;;;;;;23.81;35.64;102514.56;5050948;27;97037;-73
2023/05/19 03:05:10;;;;;;;1.08;0.98;;;;;;;23.82;35.72;102521.78;5049642;27;100750;-72
2023/05/19 03:07:37;;;;;;;1.10;0.98;;;;;;;23.82;35.45;102521.78;5040262;27;98879;-72
2023/05/19 03:10:05;;;;;;;1.75;1.10;;;;;;;23.80;35.43;102513.69;5048977;27;96826;-72
2023/05/19 03:12:32;;;;;;;2.03;1.42;;;;;;;23.80;35.39;102515.59;5050945;27;96972;-73
2023/05/19 03:14:59;;;;;;;1.75;1.13;;;;;;;23.80;35.58;102504.59;5051569;27;97994;-73
2023/05/19 03:17:27;;;;;;;1.20;1.02;;;;;;;23.79;35.63;102511.97;5050262;27;98806;-74
2023/05/19 03:19:54;;;;;;;1.38;1.20;;;;;;;23.80;35.35;102512.84;5050155;27;96674;-74
2023/05/19 03:22:21;;;;;;;1.20;1.10;;;;;;;23.79;35.54;102511.97;5052466;27;97207;-73
2023/05/19 03:24:49;;;;;;;1.77;1.25;;;;;;;23.79;35.52;102517.47;5049547;27;99853;-74
2023/05/19 03:27:16;;;;;;;1.30;1.15;;;;;;;23.78;35.48;102515.69;5033300;27;99499;-74
2023/05/19 03:29:43;;;;;;;1.55;1.10;;;;;;;23.78;35.56;102521.19;5032903;27;96792;-74
2023/05/19 03:32:09;;;;;;;1.80;1.30;;;;;;;23.77;35.72;102517.59;5051624;27;97411;-73
2023/05/19 03:34:36;;;;;;;1.75;1.20;;;;;;;23.78;35.56;102515.69;5050726;27;96904;-73
2023/05/19 03:37:03;;;;;;;1.77;1.20;;;;;;;23.78;35.33;102515.69;5049060;27;99316;-74
2023/05/19 03:39:29;;;;;;;1.48;1.05;;;;;;;23.79;35.57;102516.59;5049152;27;97258;-74
2023/05/19 03:41:56;;;;;;;1.20;1.10;;;;;;;23.77;35.80;102511.25;5050186;27;96933;-73
2023/05/19 03:44:23;;;;;;;1.17;1.05;;;;;;;23.78;35.47;102523.94;5050910;27;97418;-73
2023/05/19 03:46:50;;;;;;;1.35;1.10;;;;;;;23.77;35.40;102524.94;5033235;27;97692;-73
2023/05/19 03:49:45;;;;;;;1.45;1.35;;;;;;;23.75;35.43;102527.00;5051233;27;96730;-72
2023/05/19 03:52:35;;;;;;;2.10;1.48;;;;;;;23.75;35.51;102529.72;5051347;27;96833;-72
2023/05/19 03:55:21;;;;;;;1.55;1.13;;;;;;;23.74;35.35;102530.75;5049235;27;97442;-73
2023/05/19 03:57:48;;;;;;;1.63;1.40;;;;;;;23.74;35.43;102534.34;5051099;27;97451;-72
2023/05/19 04:00:15;;;;;;;1.13;1.00;;;;;;;23.75;35.48;102532.47;5049628;27;96719;-72
2023/05/19 04:02:42;;;;;;;1.73;1.35;;;;;;;23.75;35.79;102532.47;5051492;27;96616;-73
2023/05/19 04:05:09;;;;;;;1.45;1.13;;;;;;;23.74;35.35;102539.84;5049058;27;100296;-73
2023/05/19 04:07:36;;;;;;;1.20;1.10;;;;;;;23.75;35.47;102540.72;5049529;27;98786;-74
2023/05/19 04:10:06;;;;;;;1.40;1.10;;;;;;;23.74;35.32;102537.09;5051165;27;96764;-74
2023/05/19 04:12:33;;;;;;;1.73;1.10;;;;;;;23.75;35.38;102541.56;5051748;27;96947;-74
2023/05/19 04:14:59;;;;;;;1.50;0.90;;;;;;;23.75;35.32;102540.72;5050470;27;97576;-73
2023/05/19 04:17:26;;;;;;;1.15;1.05;;;;;;;23.74;35.26;102545.34;5049149;27;98187;-73
2023/05/19 04:19:54;;;;;;;1.30;1.00;;;;;;;23.74;35.43;102538.97;5049043;27;96665;-74
2023/05/19 04:22:21;;;;;;;1.73;1.15;;;;;;;23.74;35.39;102536.22;5050691;27;97051;-73
2023/05/19 04:24:49;;;;;;;1.08;0.98;;;;;;;23.75;35.57;102540.72;5045641;27;98739;-75
2023/05/19 04:27:16;;;;;;;1.35;1.05;;;;;;;23.74;35.66;102541.72;5047211;27;96819;-73
2023/05/19 04:29:44;;;;;;;1.38;1.05;;;;;;;23.74;35.31;102541.72;5029175;27;97279;-73
2023/05/19 04:32:16;;;;;;;1.48;1.00;;;;;;;23.74;35.51;102541.72;5046211;27;96764;-73
2023/05/19 04:34:44;;;;;;;1.40;1.10;;;;;;;23.72;35.13;102535.53;5048710;27;98550;-73
2023/05/19 04:37:16;;;;;;;1.55;1.10;;;;;;;23.72;35.36;102535.53;5049386;27;97178;-73
2023/05/19 04:39:44;;;;;;;1.33;1.02;;;;;;;23.72;35.54;102532.78;5049164;27;97106;-74
2023/05/19 04:42:18;;;;;;;1.45;1.13;;;;;;;23.72;35.26;102530.03;5049400;27;97701;-73
2023/05/19 04:44:47;;;;;;;1.38;1.10;;;;;;;23.71;35.46;102537.41;5047825;27;99782;-73
2023/05/19 04:47:14;;;;;;;1.50;1.15;;;;;;;23.72;35.50;102535.53;5050870;27;97224;-73
2023/05/19 04:49:41;;;;;;;1.60;1.25;;;;;;;23.71;35.48;102533.81;5049693;27;96850;-74
2023/05/19 04:52:09;;;;;;;1.45;1.10;;;;;;;23.70;35.34;102532.94;5029873;27;96722;-73
2023/05/19 04:54:37;;;;;;;1.40;1.30;;;;;;;23.70;35.45;102535.69;5047487;27;98963;-74
2023/05/19 04:57:06;;;;;;;1.10;1.00;;;;;;;23.72;35.56;102535.53;5049233;27;97821;-73
2023/05/19 04:59:36;;;;;;;1.10;0.98;;;;;;;23.72;35.26;102538.28;5029298;27;97373;-73
2023/05/19 05:02:05;;;;;;;1.45;1.35;;;;;;;23.71;35.51;102536.53;5033517;27;97073;-75
2023/05/19 05:04:33;;;;;;;1.27;1.00;;;;;;;23.71;35.43;102534.66;5048489;27;99521;-74
2023/05/19 05:07:00;;;;;;;1.88;1.35;;;;;;;23.71;35.91;102533.81;5048091;27;98658;-73
2023/05/19 05:09:27;;;;;;;1.20;1.00;;;;;;;23.71;35.37;102534.66;5048340;27;96774;-73
2023/05/19 05:11:57;;;;;;;1.85;1.20;;;;;;;23.71;35.36;102534.66;5049084;27;96901;-73
2023/05/19 05:14:24;;;;;;;1.48;1.23;;;;;;;23.72;35.63;102524.56;5048100;27;100290;-74
2023/05/19 05:16:51;;;;;;;1.25;1.08;;;;;;;23.72;35.36;102536.38;5049919;27;96697;-75
2023/05/19 05:19:22;;;;;;;1.30;1.10;;;;;;;23.70;35.31;102538.44;5048747;27;97270;-74
2023/05/19 05:21:49;;;;;;;1.40;1.10;;;;;;;23.71;35.43;102531.91;5048697;27;96724;-73
2023/05/19 05:24:16;;;;;;;1.00;0.90;;;;;;;23.72;35.42;102541.00;5047813;27;100462;-73
2023/05/19 05:26:48;;;;;;;1.10;1.00;;;;;;;23.71;35.52;102534.66;5048153;27;100245;-73
2023/05/19 05:29:15;;;;;;;1.27;0.95;;;;;;;23.71;35.50;102536.53;5048770;27;96670;-74
2023/05/19 05:31:41;;;;;;;1.17;1.05;;;;;;;23.72;35.39;102543.75;5048520;27;96764;-74
2023/05/19 05:34:09;;;;;;;1.40;1.17;;;;;;;23.71;35.59;102539.28;5047587;27;100247;-73
2023/05/19 05:36:36;;;;;;;1.45;1.00;;;;;;;23.72;35.63;102539.13;5047972;27;98725;-73
2023/05/19 05:39:03;;;;;;;1.35;1.17;;;;;;;23.72;35.09;102543.75;5048385;27;97246;-73
2023/05/19 05:41:34;;;;;;;1.40;1.02;;;;;;;23.72;35.38;102541.88;5032288;27;97172;-73
2023/05/19 05:44:06;;;;;;;1.10;1.00;;;;;;;23.71;35.27;102533.81;5051134;27;96853;-74
2023/05/19 05:46:33;;;;;;;1.50;1.02;;;;;;;23.71;35.22;102540.16;5051461;27;96804;-74
2023/05/19 05:49:00;;;;;;;1.25;0.88;;;;;;;23.72;35.32;102546.50;5053161;27;97208;-74
2023/05/19 05:51:28;;;;;;;1.15;1.00;;;;;;;23.74;35.31;102541.72;5052293;27;97196;-73
2023/05/19 05:53:56;;;;;;;1.40;1.10;;;;;;;23.74;35.51;102544.47;5034601;27;97092;-74
2023/05/19 05:56:32;;;;;;;1.80;1.13;;;;;;;23.73;35.58;102540.84;5035778;27;100300;-73
2023/05/19 05:58:59;;;;;;;1.60;1.02;;;;;;;23.74;35.17;102544.47;5051153;27;96847;-73
2023/05/19 06:01:26;;;;;;;2.75;1.30;;;;;;;23.75;35.42;102537.97;5053252;27;96901;-73
2023/05/19 06:03:53;;;;;;;1.20;1.10;;;;;;;23.74;35.21;102533.50;5052762;27;96754;-74
2023/05/19 06:06:22;;;;;;;1.60;1.20;;;;;;;23.74;35.20;102539.84;5051060;27;98679;-73
2023/05/19 06:08:50;;;;;;;1.25;1.10;;;;;;;23.74;35.27;102537.09;5051919;27;96780;-73
2023/05/19 06:11:18;;;;;;;1.88;1.20;;;;;;;23.74;35.65;102531.63;5051735;27;96997;-74
2023/05/19 06:13:45;;;;;;;1.17;1.08;;;;;;;23.74;35.51;102539.84;5050992;27;99651;-73
2023/05/19 06:16:19;;;;;;;1.05;0.95;;;;;;;23.73;35.31;102535.38;5051502;27;97973;-73
2023/05/19 06:18:46;;;;;;;1.02;0.93;;;;;;;23.74;35.33;102537.09;5051546;27;98334;-74
2023/05/19 06:21:13;;;;;;;1.33;1.10;;;;;;;23.75;35.46;102533.34;5053167;27;96804;-74
2023/05/19 06:23:41;;;;;;;1.52;1.10;;;;;;;23.75;35.43;102540.72;5067311;27;97172;-74
2023/05/19 06:26:09;;;;;;;1.25;1.10;;;;;;;23.75;35.43;102541.56;5030218;28;97537;-74
2023/05/19 06:28:36;;;;;;;1.10;0.90;;;;;;;23.76;35.42;102547.91;5046585;27;96643;-73
2023/05/19 06:31:03;;;;;;;1.48;1.00;;;;;;;23.76;35.26;102547.91;5052046;27;97968;-73
2023/05/19 06:33:52;;;;;;;1.30;0.90;;;;;;;23.75;35.40;102547.06;5050702;27;100411;-74
2023/05/19 06:36:19;;;;;;;1.10;1.00;;;;;;;23.76;35.38;102539.69;5051541;27;100572;-74
2023/05/19 06:38:47;;;;;;;1.17;0.90;;;;;;;23.76;35.64;102545.19;5051497;27;96769;-74
2023/05/19 06:41:14;;;;;;;1.20;1.10;;;;;;;23.77;35.70;102544.16;5051790;27;96856;-74
2023/05/19 06:43:41;;;;;;;1.00;0.90;;;;;;;23.76;35.58;102546.03;5051617;27;98715;-73
2023/05/19 06:46:12;;;;;;;1.23;1.00;;;;;;;23.76;35.17;102542.44;5052045;27;97805;-74
2023/05/19 06:48:39;;;;;;;1.48;1.25;;;;;;;23.77;35.24;102547.75;5052122;27;96801;-73
2023/05/19 06:51:08;;;;;;;1.45;1.00;;;;;;;23.77;35.43;102546.91;5050921;27;96785;-74
2023/05/19 06:53:37;;;;;;;1.15;0.80;;;;;;;23.77;35.48;102546.91;5048988;27;100703;-74
2023/05/19 06:56:07;;;;;;;1.17;1.08;;;;;;;23.76;35.50;102542.44;5050391;27;98216;-74
2023/05/19 06:58:36;;;;;;;1.13;0.90;;;;;;;23.77;35.41;102553.25;5034381;27;96782;-74
2023/05/19 07:01:04;;;;;;;1.17;1.00;;;;;;;23.78;35.59;102545.88;5050966;27;96804;-74
2023/05/19 07:03:37;;;;;;;1.15;1.00;;;;;;;23.78;35.40;102540.41;5049724;27;100381;-73
2023/05/19 07:06:04;;;;;;;1.83;0.90;;;;;;;23.79;35.57;102535.81;5050995;27;100311;-74
2023/05/19 07:08:35;;;;;;;1.38;0.90;;;;;;;23.79;35.37;102539.41;5051072;27;96817;-74
2023/05/19 07:11:03;;;;;;;1.38;0.95;;;;;;;23.80;35.41;102540.28;5050555;27;96879;-73
2023/05/19 07:13:31;;;;;;;1.52;1.00;;;;;;;23.79;35.47;102539.41;5049439;27;98562;-73
2023/05/19 07:15:58;;;;;;;1.48;1.00;;;;;;;23.79;35.15;102539.41;5033568;27;99055;-74
2023/05/19 07:18:30;;;;;;;1.17;0.95;;;;;;;23.79;35.21;102539.41;5050796;27;97333;-73
2023/05/19 07:20:57;;;;;;;1.02;0.90;;;;;;;23.79;35.27;102536.66;5050556;27;97445;-74
2023/05/19 07:23:24;;;;;;;1.55;1.10;;;;;;;23.80;35.28;102540.28;5049625;27;99493;-74
2023/05/19 07:25:55;;;;;;;1.42;1.00;;;;;;;23.81;35.39;102542.00;5051385;27;97210;-74
2023/05/19 07:28:21;;;;;;;1.40;1.00;;;;;;;23.80;35.35;102540.28;5051089;27;96735;-74
2023/05/19 07:30:48;;;;;;;1.20;0.98;;;;;;;23.80;35.50;102532.91;5051849;27;96856;-74
2023/05/19 07:33:15;;;;;;;1.10;0.82;;;;;;;23.81;35.33;102537.38;5050990;27;97616;-74
2023/05/19 07:35:43;;;;;;;0.95;0.77;;;;;;;23.81;35.50;102542.88;5051978;27;97770;-74
2023/05/19 07:38:09;;;;;;;1.10;0.85;;;;;;;23.81;35.40;102542.88;5049837;27;96750;-73
2023/05/19 07:40:36;;;;;;;1.65;1.00;;;;;;;23.81;35.50;102540.13;5051607;27;96848;-74
2023/05/19 07:43:03;;;;;;;0.98;0.77;;;;;;;23.82;35.59;102543.72;5049807;27;99927;-73
2023/05/19 07:45:30;;;;;;;1.40;0.88;;;;;;;23.82;35.21;102541.84;5048924;27;99926;-74
2023/05/19 07:47:56;;;;;;;1.88;0.90;;;;;;;23.81;35.24;102537.38;5050296;27;97072;-74
2023/05/19 07:50:24;;;;;;;1.33;1.00;;;;;;;23.83;35.57;102531.72;5051918;27;96609;-73
2023/05/19 07:52:50;;;;;;;1.45;1.02;;;;;;;23.83;35.39;102534.47;5051140;27;97748;-74
2023/05/19 07:55:18;;;;;;;1.55;1.00;;;;;;;23.84;35.23;102530.72;5051277;27;97804;-74
2023/05/19 07:57:44;;;;;;;1.92;1.13;;;;;;;23.83;35.50;102538.09;5032904;27;96785;-73
2023/05/19 08:00:12;;;;;;;1.15;0.73;;;;;;;23.85;35.53;102538.78;5050548;27;97584;-73
2023/05/19 08:02:40;;;;;;;3.08;1.00;;;;;;;23.84;35.26;102528.84;5032179;27;98174;-73
2023/05/19 08:05:08;;;;;;;1.17;0.88;;;;;;;23.84;35.73;102531.56;5048388;27;98293;-73
2023/05/19 08:07:35;;;;;;;1.10;0.90;;;;;;;23.85;35.47;102538.78;5049904;27;97678;-73
2023/05/19 08:10:02;;;;;;;1.00;0.85;;;;;;;23.86;35.44;102525.94;5051297;27;96819;-73
2023/05/19 08:12:28;;;;;;;1.00;0.90;;;;;;;23.85;35.55;102526.97;5050812;27;98357;-73
2023/05/19 08:14:54;;;;;;;1.63;1.00;;;;;;;23.85;35.20;102527.81;5050270;27;97791;-73
2023/05/19 08:17:23;;;;;;;1.20;1.00;;;;;;;23.86;35.56;102523.19;5051455;27;97030;-73
2023/05/19 08:19:50;;;;;;;1.10;0.90;;;;;;;23.85;35.47;102519.59;5051561;27;96812;-73
2023/05/19 08:22:17;;;;;;;1.20;0.88;;;;;;;23.86;35.49;102517.69;5050823;27;96728;-73
2023/05/19 08:24:43;;;;;;;0.98;0.88;;;;;;;23.87;35.49;102520.28;5050506;27;97141;-73
2023/05/19 08:27:10;;;;;;;1.13;0.85;;;;;;;23.88;35.24;102510.19;5049217;27;96879;-73
2023/05/19 08:29:37;;;;;;;1.33;0.85;;;;;;;23.87;35.48;102512.06;5051110;27;97058;-73
2023/05/19 08:32:04;;;;;;;1.55;0.95;;;;;;;23.88;35.57;102502.81;5048935;27;96930;-73
2023/05/19 08:34:31;;;;;;;1.15;0.80;;;;;;;23.88;35.35;102500.06;5050462;27;97526;-73
2023/05/19 08:36:58;;;;;;;1.20;0.95;;;;;;;23.89;35.59;102496.31;5032340;27;96724;-73
2023/05/19 08:39:26;;;;;;;1.15;0.82;;;;;;;23.89;35.42;102495.44;5032328;27;96912;-73
2023/05/19 08:41:53;;;;;;;1.58;0.90;;;;;;;23.90;35.57;102492.53;5048947;27;96940;-73
2023/05/19 08:44:20;;;;;;;1.42;0.98;;;;;;;23.92;35.71;102492.38;5048963;27;97945;-73
2023/05/19 08:46:48;;;;;;;1.13;0.73;;;;;;;23.92;35.25;102487.75;5049199;27;97527;-73
2023/05/19 08:49:21;;;;;;;1.52;0.88;;;;;;;23.93;35.41;102489.47;5049199;27;97167;-73
2023/05/19 08:52:19;;;;;;;1.15;0.95;;;;;;;23.93;35.70;102478.50;5050120;27;96776;-73
2023/05/19 08:55:03;;;;;;;1.15;0.75;;;;;;;23.91;35.53;102477.81;5046227;27;97454;-73
2023/05/19 08:57:31;;;;;;;1.02;0.70;;;;;;;23.91;35.55;102474.19;5050773;27;97258;-73
2023/05/19 08:59:59;;;;;;;1.58;1.10;;;;;;;23.93;35.64;102480.38;5049119;27;96983;-73
2023/05/19 09:02:26;;;;;;;1.35;1.00;;;;;;;23.93;35.65;102477.66;5048714;27;97231;-73
2023/05/19 09:04:54;;;;;;;1.30;0.90;;;;;;;23.92;35.60;102476.78;5049332;27;96772;-73
2023/05/19 09:07:24;;;;;;;0.82;0.70;;;;;;;23.93;35.44;102473.03;5050964;27;97542;-73
2023/05/19 09:09:51;;;;;;;0.88;0.70;;;;;;;23.94;35.43;102468.41;5049403;27;97313;-73
2023/05/19 09:12:17;;;;;;;1.17;0.85;;;;;;;23.95;35.45;102472.88;5048218;27;100086;-73
2023/05/19 09:14:44;;;;;;;0.88;0.70;;;;;;;23.94;35.23;102466.50;5049654;27;97370;-73
2023/05/19 09:17:11;;;;;;;1.02;0.90;;;;;;;23.94;35.28;102472.00;5048848;27;96934;-73
2023/05/19 09:19:43;;;;;;;1.50;0.80;;;;;;;23.97;35.41;102470.81;5048710;27;97004;-73
2023/05/19 09:22:10;;;;;;;1.02;0.85;;;;;;;23.96;35.54;102463.59;5048754;27;97992;-73
2023/05/19 09:24:39;;;;;;;1.35;0.82;;;;;;;23.95;35.42;102462.75;5049678;27;97489;-74
2023/05/19 09:27:05;;;;;;;1.30;0.80;;;;;;;23.96;35.53;102452.63;5049925;27;96825;-74
2023/05/19 09:29:32;;;;;;;2.83;1.02;;;;;;;23.97;35.48;102454.34;5049767;27;97271;-73
2023/05/19 09:32:04;;;;;;;0.85;0.73;;;;;;;23.97;35.10;102462.59;5049776;27;97863;-73
2023/05/19 09:34:31;;;;;;;0.90;0.68;;;;;;;23.97;35.45;102459.84;5048486;27;98678;-74
2023/05/19 09:36:58;;;;;;;0.60;0.57;;;;;;;23.97;35.30;102455.22;5048501;27;97046;-74
2023/05/19 09:39:25;;;;;;;1.02;0.75;;;;;;;23.98;35.45;102447.84;5036282;27;96835;-73
2023/05/19 09:41:53;;;;;;;1.42;0.93;;;;;;;23.98;35.53;102445.97;5049570;27;100955;-75
2023/05/19 09:44:28;;;;;;;1.33;0.80;;;;;;;23.98;35.74;102447.84;5049667;27;98469;-75
2023/05/19 09:46:56;;;;;;;1.10;0.80;;;;;;;23.97;35.28;102449.72;5050056;27;96811;-75
2023/05/19 09:49:24;;;;;;;1.00;0.70;;;;;;;23.99;35.38;102442.19;5050089;27;96845;-73
2023/05/19 09:51:55;;;;;;;0.95;0.70;;;;;;;23.99;35.59;102441.34;5048295;27;97860;-73
2023/05/19 09:54:23;;;;;;;1.30;0.75;;;;;;;23.98;35.50;102445.09;5047762;27;99748;-73
2023/05/19 09:57:00;;;;;;;0.93;0.60;;;;;;;23.98;35.27;102443.22;5049769;27;97076;-73
2023/05/19 09:59:28;;;;;;;1.05;0.77;;;;;;;23.98;35.54;102445.97;5050415;27;96917;-73
2023/05/19 10:01:59;;;;;;;1.02;0.77;;;;;;;23.98;35.53;102451.44;5049643;27;97676;-73
2023/05/19 10:04:28;;;;;;;0.70;0.50;;;;;;;23.99;35.31;102452.31;5047963;27;97035;-73
2023/05/19 10:07:00;;;;;;;1.30;0.90;;;;;;;23.99;35.47;102444.94;5048620;27;96692;-73
2023/05/19 10:09:29;;;;;;;1.40;0.63;;;;;;;24.00;35.45;102449.41;5049662;27;96830;-73
2023/05/19 10:11:57;;;;;;;1.10;0.68;;;;;;;23.99;35.29;102447.69;5049102;27;96754;-73
2023/05/19 10:14:26;;;;;;;1.42;0.70;;;;;;;23.99;35.22;102446.81;5048938;27;97684;-73
2023/05/19 10:16:54;;;;;;;0.90;0.52;;;;;;;23.99;35.33;102447.69;5047803;27;96834;-73
2023/05/19 10:19:24;;;;;;;1.20;0.60;;;;;;;23.99;35.50;102444.94;5048135;27;96840;-73
2023/05/19 10:21:51;;;;;;;0.80;0.73;;;;;;;23.99;35.55;102444.94;5048816;27;97453;-73
2023/05/19 10:24:18;;;;;;;0.82;0.60;;;;;;;23.99;35.46;102439.47;5049434;27;96850;-73
2023/05/19 10:26:52;;;;;;;1.08;0.90;;;;;;;23.99;35.26;102436.72;5027544;28;96808;-73
2023/05/19 10:29:24;;;;;;;1.92;0.80;;;;;;;23.99;35.25;102435.84;5039173;27;96793;-73
2023/05/19 10:31:53;;;;;;;0.82;0.60;;;;;;;23.99;35.27;102431.22;5033798;27;97615;-73
2023/05/19 10:34:22;;;;;;;1.00;0.70;;;;;;;23.98;35.57;102429.50;5051032;27;98689;-73
2023/05/19 10:37:05;;;;;;;1.38;0.80;;;;;;;23.99;35.56;102425.72;5052500;27;96656;-73
2023/05/19 10:39:36;;;;;;;1.00;0.60;;;;;;;23.98;35.34;102420.41;5038460;27;97136;-73
2023/05/19 10:42:09;;;;;;;1.02;0.80;;;;;;;23.98;35.39;102415.78;5051232;27;96889;-73
2023/05/19 10:45:13;;;;;;;0.98;0.60;;;;;;;24.00;35.22;102415.63;5050491;27;98660;-73
2023/05/19 10:47:40;;;;;;;1.00;0.68;;;;;;;23.97;35.63;102411.31;5052617;27;97113;-72
2023/05/19 10:50:07;;;;;;;1.20;0.85;;;;;;;23.98;35.21;102412.16;5051811;27;96840;-73
2023/05/19 10:52:39;;;;;;;1.02;0.70;;;;;;;23.98;35.25;102413.03;5052141;27;97219;-73
2023/05/19 10:55:07;;;;;;;0.68;0.60;;;;;;;23.99;35.28;102412.00;5051920;27;96783;-73
2023/05/19 10:57:34;;;;;;;0.80;0.60;;;;;;;23.98;35.44;102404.78;5050942;27;96846;-73
2023/05/19 11:00:10;;;;;;;0.77;0.70;;;;;;;23.99;35.41;102401.03;5052295;27;96798;-73
2023/05/19 11:02:42;;;;;;;1.27;0.65;;;;;;;23.99;35.69;102403.78;5052560;27;97032;-73
2023/05/19 11:05:15;;;;;;;0.77;0.70;;;;;;;24.00;35.33;102404.63;5051719;27;96661;-73
2023/05/19 11:08:03;;;;;;;1.33;0.70;;;;;;;24.01;35.45;102403.63;5051538;27;96887;-73
2023/05/19 11:10:30;;;;;;;0.80;0.60;;;;;;;24.00;35.67;102407.38;5036660;27;96755;-73
2023/05/19 11:12:57;;;;;;;0.75;0.50;;;;;;;24.00;35.50;102410.13;5050138;27;98910;-73
2023/05/19 11:15:27;;;;;;;1.08;0.70;;;;;;;24.01;35.28;102411.84;5050406;27;96824;-73
2023/05/19 11:17:54;;;;;;;0.85;0.70;;;;;;;24.00;35.54;102405.50;5050655;27;96841;-73
2023/05/19 11:20:24;;;;;;;0.68;0.50;;;;;;;24.01;35.51;102409.97;5051872;27;97105;-73
2023/05/19 11:23:02;;;;;;;1.50;0.65;;;;;;;24.02;35.36;102408.09;5051231;27;96947;-73
2023/05/19 11:25:55;;;;;;;0.98;0.60;;;;;;;24.00;35.42;102405.50;5051161;27;96801;-73
2023/05/19 11:28:26;;;;;;;0.90;0.60;;;;;;;24.00;35.51;102404.63;5048540;27;97330;-73
2023/05/19 11:30:56;;;;;;;0.60;0.60;;;;;;;24.02;35.57;102405.34;5033513;27;96950;-73
2023/05/19 11:33:25;;;;;;;1.15;0.60;;;;;;;24.01;35.75;102403.63;5051169;27;97561;-74
2023/05/19 11:35:58;;;;;;;1.38;0.70;;;;;;;24.02;35.56;102399.84;5051357;27;97926;-73